Time;durP1;ratioP1;P1;durP2;ratioP2;P2;SDS_P1;SDS_P2;PMS_P1;PMS_P2;Temp;Humidity;BMP_temperature;BMP_pressure;BME280_temperature;BME280_humidity;BME280_pressure;Samples;Min_cycle;Max_cycle;Signal;HPM_P1;HPM_P2
2023/04/15 00:01:54;;;;;;;13.52;5.20;;;;;;;7.39;72.31;100659.53;4989821;28;20026;-84
2023/04/15 00:04:20;;;;;;;7.65;5.00;;;;;;;7.35;72.70;100658.84;4968819;28;20053;-84
2023/04/15 00:06:51;;;;;;;11.95;5.35;;;;;;;7.35;72.49;100675.09;4938489;28;20052;-84
2023/04/15 00:09:18;;;;;;;11.10;5.55;;;;;;;7.28;73.32;100667.47;4940584;28;20064;-84
2023/04/15 00:11:44;;;;;;;10.75;4.85;;;;;;;7.27;72.90;100671.97;4947641;28;20018;-84
2023/04/15 00:14:09;;;;;;;10.48;6.30;;;;;;;7.19;73.44;100658.06;4949893;28;20030;-84
2023/04/15 00:16:35;;;;;;;13.80;6.10;;;;;;;7.16;73.03;100660.97;4938662;28;20065;-84
2023/04/15 00:19:00;;;;;;;9.32;5.68;;;;;;;7.15;73.97;100661.94;4935844;28;20030;-85
2023/04/15 00:21:27;;;;;;;10.73;5.65;;;;;;;7.13;73.87;100667.44;4935480;28;20030;-84
2023/04/15 00:23:53;;;;;;;15.38;6.65;;;;;;;7.11;74.08;100663.94;4962867;28;20018;-84
2023/04/15 00:26:19;;;;;;;10.32;5.70;;;;;;;7.12;73.63;100667.50;4932459;28;20026;-84
2023/04/15 00:28:47;;;;;;;13.32;5.90;;;;;;;7.10;73.50;100662.22;4936466;28;20026;-84
2023/04/15 00:31:13;;;;;;;6.50;5.05;;;;;;;7.07;73.81;100664.22;4921802;28;20752;-84
2023/04/15 00:33:39;;;;;;;9.10;5.50;;;;;;;7.05;73.72;100658.91;4996055;28;20034;-84
2023/04/15 00:36:06;;;;;;;12.07;5.53;;;;;;;7.05;74.21;100664.31;4947195;28;20105;-84
2023/04/15 00:38:32;;;;;;;9.65;5.68;;;;;;;6.98;74.06;100654.81;4956502;28;20033;-83
2023/04/15 00:40:58;;;;;;;13.05;6.50;;;;;;;6.98;74.16;100665.66;4955882;28;20108;-84
2023/04/15 00:43:25;;;;;;;11.05;5.85;;;;;;;6.95;74.33;100663.16;4968333;28;20113;-84
2023/04/15 00:45:52;;;;;;;9.68;6.03;;;;;;;6.95;75.18;100665.84;4949521;28;20368;-84
2023/04/15 00:48:17;;;;;;;11.68;6.18;;;;;;;6.81;75.37;100647.75;4938266;28;20037;-84
2023/04/15 00:50:43;;;;;;;12.45;6.60;;;;;;;6.80;75.52;100661.34;4938149;28;20038;-84
2023/04/15 00:53:09;;;;;;;8.88;5.50;;;;;;;6.80;75.31;100672.16;4969481;28;20031;-84
2023/04/15 00:55:35;;;;;;;11.80;6.40;;;;;;;6.70;76.25;100662.84;4960491;28;20855;-84
2023/04/15 00:58:00;;;;;;;12.40;6.68;;;;;;;6.65;76.30;100666.69;4919973;28;20026;-83
2023/04/15 01:00:26;;;;;;;10.93;6.40;;;;;;;6.58;76.81;100656.38;4916353;28;20058;-83
2023/04/15 01:02:51;;;;;;;13.23;6.85;;;;;;;6.52;76.18;100665.69;4934945;28;20026;-83
2023/04/15 01:05:18;;;;;;;8.82;6.05;;;;;;;6.45;76.87;100671.56;4974568;28;20073;-83
2023/04/15 01:07:43;;;;;;;15.48;6.45;;;;;;;6.37;77.88;100659.34;4955002;28;20061;-83
2023/04/15 01:10:09;;;;;;;13.13;6.68;;;;;;;6.30;78.24;100662.50;4939112;28;20042;-84
2023/04/15 01:12:36;;;;;;;14.90;5.93;;;;;;;6.07;79.28;100631.41;4943419;28;20206;-84
2023/04/15 01:15:02;;;;;;;12.80;6.75;;;;;;;6.19;78.48;100659.53;4986228;28;20109;-84
2023/04/15 01:17:27;;;;;;;11.65;6.28;;;;;;;6.10;77.69;100659.09;4919534;28;20974;-83
2023/04/15 01:19:55;;;;;;;9.02;6.35;;;;;;;6.12;77.61;100656.31;4920564;28;20100;-83
2023/04/15 01:22:22;;;;;;;9.23;5.78;;;;;;;6.02;78.15;100650.56;4901229;28;20702;-84
2023/04/15 01:25:01;;;;;;;10.73;6.00;;;;;;;6.03;77.37;100651.44;4951038;28;20145;-84
2023/04/15 01:27:26;;;;;;;9.70;6.15;;;;;;;5.99;79.21;100653.44;4923503;28;20800;-84
2023/04/15 01:29:52;;;;;;;11.57;7.32;;;;;;;5.91;78.27;100644.84;4933979;28;20041;-84
2023/04/15 01:32:18;;;;;;;10.48;6.18;;;;;;;5.95;78.46;100662.66;4917938;28;20145;-83
2023/04/15 01:34:43;;;;;;;14.32;8.20;;;;;;;5.95;78.18;100662.66;4993587;28;20433;-84
2023/04/15 01:37:09;;;;;;;10.70;7.07;;;;;;;5.91;78.44;100666.47;4957424;28;20677;-85
2023/04/15 01:39:34;;;;;;;11.20;6.80;;;;;;;5.75;78.56;100647.56;4955524;28;20087;-84
2023/04/15 01:42:00;;;;;;;18.58;7.07;;;;;;;5.77;78.54;100666.34;4952665;28;20711;-83
2023/04/15 01:44:26;;;;;;;9.88;7.00;;;;;;;5.75;77.92;100663.75;4966139;28;20704;-84
2023/04/15 01:46:52;;;;;;;10.80;7.20;;;;;;;5.78;78.88;100670.78;4968794;28;20087;-83
2023/04/15 01:49:18;;;;;;;15.02;6.82;;;;;;;5.69;78.26;100658.72;4954594;28;20701;-84
2023/04/15 01:51:44;;;;;;;19.60;7.70;;;;;;;5.69;79.08;100663.19;4955985;28;20201;-84
2023/04/15 01:54:11;;;;;;;17.65;8.05;;;;;;;5.72;79.85;100668.44;4954330;28;20159;-84
2023/04/15 01:56:37;;;;;;;14.50;7.82;;;;;;;5.67;80.13;100655.19;4998357;28;20088;-84
2023/04/15 01:59:03;;;;;;;13.07;8.48;;;;;;;5.68;81.03;100667.72;4898832;28;20093;-84
2023/04/15 02:01:28;;;;;;;12.32;7.70;;;;;;;5.69;80.13;100668.59;4914684;28;20316;-84
2023/04/15 02:03:53;;;;;;;15.85;7.97;;;;;;;5.73;80.24;100660.25;4913941;28;20030;-84
2023/04/15 02:06:19;;;;;;;14.38;8.07;;;;;;;5.73;80.95;100654.84;4982323;28;20033;-84
2023/04/15 02:08:46;;;;;;;12.13;7.80;;;;;;;5.71;80.87;100654.09;4956029;28;20026;-84
2023/04/15 02:11:12;;;;;;;10.88;7.97;;;;;;;5.69;80.83;100663.19;4938952;28;20037;-84
2023/04/15 02:13:37;;;;;;;10.65;7.05;;;;;;;5.63;81.19;100659.03;4944123;28;20065;-84
2023/04/15 02:16:03;;;;;;;13.02;7.40;;;;;;;5.54;81.40;100660.41;4985810;28;20030;-84
2023/04/15 02:18:28;;;;;;;12.77;8.07;;;;;;;5.46;80.92;100657.25;4959457;28;20030;-84
2023/04/15 02:20:55;;;;;;;13.00;7.78;;;;;;;5.47;80.89;100667.09;4946390;28;21058;-84
2023/04/15 02:23:20;;;;;;;11.02;6.78;;;;;;;5.37;80.61;100663.16;4918419;28;20805;-84
2023/04/15 02:25:46;;;;;;;11.68;7.22;;;;;;;5.36;80.47;100666.78;4942476;28;20201;-84
2023/04/15 02:28:11;;;;;;;11.13;7.60;;;;;;;5.40;81.11;100681.00;4954663;28;20023;-84
2023/04/15 02:30:37;;;;;;;13.02;6.95;;;;;;;5.32;81.03;100673.31;4916876;28;20093;-84
2023/04/15 02:33:02;;;;;;;10.40;6.80;;;;;;;5.34;80.48;100682.19;4917877;28;20022;-84
2023/04/15 02:35:28;;;;;;;9.80;7.22;;;;;;;5.33;79.81;100684.03;4951996;28;20434;-84
2023/04/15 02:37:54;;;;;;;15.18;8.55;;;;;;;5.35;81.32;100690.19;4995640;28;20176;-84
2023/04/15 02:40:19;;;;;;;16.45;7.78;;;;;;;5.30;81.42;100683.31;4938578;28;20386;-84
2023/04/15 02:42:45;;;;;;;16.73;7.95;;;;;;;5.35;81.44;100692.88;4948922;28;20173;-84
2023/04/15 02:45:13;;;;;;;13.02;8.02;;;;;;;5.33;81.07;100694.81;4922113;28;20022;-84
2023/04/15 02:47:40;;;;;;;15.68;8.90;;;;;;;5.34;83.09;100701.06;4987082;28;20056;-84
2023/04/15 02:50:08;;;;;;;12.95;7.70;;;;;;;5.30;82.96;100697.66;4920831;28;20022;-84
2023/04/15 02:52:33;;;;;;;15.95;7.20;;;;;;;5.20;83.35;100690.16;4939872;28;20302;-84
2023/04/15 02:55:01;;;;;;;20.25;8.90;;;;;;;5.19;83.43;100694.66;4960894;28;20077;-84
2023/04/15 02:57:28;;;;;;;14.93;8.30;;;;;;;5.21;83.76;100705.38;5004651;28;20108;-84
2023/04/15 02:59:55;;;;;;;12.68;7.95;;;;;;;5.12;84.79;100699.50;4968725;28;20033;-84
2023/04/15 03:02:20;;;;;;;15.00;9.35;;;;;;;5.14;84.48;100706.66;4928755;28;20828;-84
2023/04/15 03:04:46;;;;;;;13.80;8.60;;;;;;;5.03;84.21;100689.19;4939108;28;20030;-84
2023/04/15 03:07:11;;;;;;;14.00;8.80;;;;;;;5.04;85.23;100698.19;4960263;28;20022;-84
2023/04/15 03:09:39;;;;;;;18.40;9.18;;;;;;;5.01;85.56;100695.63;4943544;28;20857;-84
2023/04/15 03:12:06;;;;;;;13.48;8.02;;;;;;;5.05;85.47;100695.38;4954541;28;20072;-83
2023/04/15 03:14:31;;;;;;;15.23;8.45;;;;;;;5.03;86.14;100699.09;4942921;28;20030;-84
2023/04/15 03:16:58;;;;;;;13.18;8.00;;;;;;;5.04;85.63;100698.19;4960876;28;20066;-84
2023/04/15 03:19:24;;;;;;;13.98;7.65;;;;;;;5.02;84.56;100702.75;4992029;28;20065;-83
2023/04/15 03:21:49;;;;;;;18.80;8.32;;;;;;;5.00;84.34;100697.47;4929984;28;20050;-83
2023/04/15 03:24:15;;;;;;;15.68;8.38;;;;;;;5.02;84.56;100706.31;4938246;28;20060;-84
2023/04/15 03:26:40;;;;;;;14.50;9.23;;;;;;;4.97;84.59;100711.09;4946696;28;20406;-84
2023/04/15 03:29:12;;;;;;;15.70;7.90;;;;;;;4.96;84.45;100709.34;4964969;28;20038;-84
2023/04/15 03:31:40;;;;;;;18.13;8.27;;;;;;;4.89;85.00;100707.91;4929755;28;20033;-84
2023/04/15 03:34:05;;;;;;;13.48;8.68;;;;;;;4.95;85.53;100725.59;4922267;28;20117;-84
2023/04/15 03:36:31;;;;;;;13.75;8.15;;;;;;;4.87;85.31;100712.50;4923974;28;20113;-84
2023/04/15 03:38:57;;;;;;;13.68;7.78;;;;;;;4.88;86.29;100721.47;4989191;28;20027;-84
2023/04/15 03:41:23;;;;;;;13.85;7.95;;;;;;;4.81;86.93;100721.78;4943316;28;20022;-83
2023/04/15 03:43:50;;;;;;;12.50;8.57;;;;;;;4.75;87.01;100719.38;4923306;28;20034;-84
2023/04/15 03:46:17;;;;;;;11.80;8.07;;;;;;;4.78;87.26;100739.94;4938745;28;20045;-84
2023/04/15 03:48:42;;;;;;;14.18;8.73;;;;;;;4.62;86.46;100715.59;4962054;28;20026;-84
2023/04/15 03:51:07;;;;;;;15.88;7.78;;;;;;;4.67;85.81;100729.69;4957560;28;20785;-84
2023/04/15 03:53:33;;;;;;;12.82;8.00;;;;;;;4.69;86.84;100748.47;4920895;28;20910;-83
2023/04/15 03:55:58;;;;;;;13.38;8.27;;;;;;;4.67;86.38;100745.88;4920892;28;20413;-84
2023/04/15 03:58:23;;;;;;;14.57;8.52;;;;;;;4.64;87.36;100754.09;4977515;28;20045;-84
2023/04/15 04:00:49;;;;;;;15.45;8.45;;;;;;;4.57;87.00;100742.75;4987733;28;20815;-84
2023/04/15 04:03:14;;;;;;;13.00;8.55;;;;;;;4.56;87.93;100745.50;4951381;28;20685;-84
2023/04/15 04:05:40;;;;;;;17.83;8.88;;;;;;;4.38;87.48;100714.94;4939331;28;20125;-84
2023/04/15 04:08:06;;;;;;;13.35;7.72;;;;;;;4.59;87.65;100765.09;4933664;28;20471;-84
2023/04/15 04:10:31;;;;;;;11.35;8.30;;;;;;;4.53;88.09;100751.06;4980255;28;20185;-84
2023/04/15 04:12:57;;;;;;;14.07;8.50;;;;;;;4.53;88.41;100761.84;4920640;28;20910;-83
2023/04/15 04:15:22;;;;;;;16.45;8.02;;;;;;;4.49;88.43;100766.50;4922041;28;20450;-84
2023/04/15 04:17:47;;;;;;;13.65;8.93;;;;;;;4.58;88.82;100781.34;4919987;28;20033;-84
2023/04/15 04:20:13;;;;;;;14.50;8.70;;;;;;;4.58;89.11;100784.91;4998878;28;20343;-84
2023/04/15 04:22:40;;;;;;;14.48;9.60;;;;;;;4.58;89.04;100784.91;4963649;28;20018;-85
2023/04/15 04:25:07;;;;;;;13.40;8.73;;;;;;;4.56;88.56;100780.53;4956362;28;20852;-84
2023/04/15 04:27:33;;;;;;;14.20;8.77;;;;;;;4.51;88.92;100777.19;4938863;28;20101;-83
2023/04/15 04:29:58;;;;;;;17.85;10.45;;;;;;;4.52;89.71;100787.00;4975584;28;20204;-84
2023/04/15 04:32:24;;;;;;;12.27;7.60;;;;;;;4.54;89.47;100794.06;4933852;28;20845;-84
2023/04/15 04:34:49;;;;;;;16.08;8.68;;;;;;;4.42;88.93;100781.19;4940674;28;20038;-83
2023/04/15 04:37:14;;;;;;;13.52;8.32;;;;;;;4.49;89.02;100800.63;4936965;28;20030;-83
2023/04/15 04:39:40;;;;;;;14.02;8.65;;;;;;;4.40;89.97;100799.25;4946730;28;20026;-84
2023/04/15 04:42:05;;;;;;;13.55;9.18;;;;;;;4.42;90.40;100807.25;4965375;28;20053;-83
2023/04/15 04:44:31;;;;;;;20.60;8.82;;;;;;;4.43;90.46;100817.97;4919855;28;20030;-84
2023/04/15 04:46:56;;;;;;;16.85;9.55;;;;;;;4.40;89.78;100814.53;4937594;28;20065;-84
2023/04/15 04:49:22;;;;;;;16.13;8.57;;;;;;;4.38;90.70;100808.34;4950718;28;20026;-84
2023/04/15 04:51:47;;;;;;;12.73;8.50;;;;;;;4.41;90.10;100824.38;4998619;28;20059;-84
2023/04/15 04:54:13;;;;;;;14.93;8.50;;;;;;;4.43;90.12;100826.06;4958453;28;21115;-83
2023/04/15 04:56:39;;;;;;;16.08;8.98;;;;;;;4.42;90.64;100826.97;4955614;28;20042;-83
2023/04/15 04:59:05;;;;;;;10.95;8.10;;;;;;;4.42;90.47;100835.06;4917383;28;20034;-84
2023/04/15 05:01:31;;;;;;;17.15;8.30;;;;;;;4.45;90.72;100837.63;4969975;28;20113;-84
2023/04/15 05:03:56;;;;;;;15.73;7.70;;;;;;;4.42;90.23;100845.84;4945852;28;20730;-83
2023/04/15 05:06:22;;;;;;;15.85;8.50;;;;;;;4.43;90.54;100842.22;4921724;28;20048;-83
2023/04/15 05:08:47;;;;;;;16.60;7.97;;;;;;;4.47;89.11;100842.91;4941536;28;20117;-83
2023/04/15 05:11:14;;;;;;;14.80;9.05;;;;;;;4.50;89.80;100851.75;4994471;28;20026;-84
2023/04/15 05:13:39;;;;;;;18.33;8.52;;;;;;;4.58;88.20;100851.38;4956659;28;20816;-83
2023/04/15 05:16:05;;;;;;;14.77;7.95;;;;;;;4.63;87.99;100857.44;4918951;28;20026;-83
2023/04/15 05:18:30;;;;;;;17.80;8.55;;;;;;;4.72;88.01;100859.69;4920485;28;20046;-83
2023/04/15 05:20:57;;;;;;;13.02;8.57;;;;;;;4.91;87.76;100856.97;4946370;28;20046;-84
2023/04/15 05:23:22;;;;;;;17.17;8.75;;;;;;;4.97;87.05;100861.19;4965274;28;20214;-83
2023/04/15 05:25:47;;;;;;;13.13;9.05;;;;;;;5.15;87.49;100865.66;4916787;28;20623;-84
2023/04/15 05:28:13;;;;;;;13.30;8.77;;;;;;;5.24;85.41;100877.81;4916710;28;20033;-83
2023/04/15 05:30:39;;;;;;;13.43;7.88;;;;;;;5.22;87.29;100882.41;4950476;28;20088;-84
2023/04/15 05:33:04;;;;;;;13.55;8.05;;;;;;;5.19;86.40;100885.28;4962311;28;20014;-83
2023/04/15 05:35:30;;;;;;;15.40;8.52;;;;;;;5.16;87.67;100890.81;4920487;28;20316;-84
2023/04/15 05:37:55;;;;;;;12.52;8.52;;;;;;;5.14;87.69;100896.28;4917660;28;20043;-83
2023/04/15 05:40:21;;;;;;;15.65;8.55;;;;;;;5.06;87.62;100885.88;4914753;28;20030;-83
2023/04/15 05:42:46;;;;;;;14.27;8.65;;;;;;;5.07;88.17;100900.22;4987577;28;20031;-83
2023/04/15 05:45:12;;;;;;;14.43;8.20;;;;;;;5.08;88.46;100902.84;4921422;28;20022;-83
2023/04/15 05:47:37;;;;;;;12.20;7.57;;;;;;;5.08;88.25;100901.97;4935001;28;20018;-83
2023/04/15 05:50:04;;;;;;;15.25;7.85;;;;;;;5.13;89.72;100908.03;4937812;28;20397;-83
2023/04/15 05:52:30;;;;;;;17.80;8.88;;;;;;;5.15;89.45;100913.34;4978647;28;20076;-83
2023/04/15 05:54:55;;;;;;;16.08;9.25;;;;;;;5.21;89.16;100921.13;4988413;28;20118;-84
2023/04/15 05:57:21;;;;;;;16.77;9.57;;;;;;;5.20;88.73;100919.38;4970992;28;20618;-84
2023/04/15 05:59:46;;;;;;;12.63;7.63;;;;;;;5.24;88.09;100926.38;4986251;28;20038;-83
2023/04/15 06:02:12;;;;;;;14.75;8.25;;;;;;;5.27;86.64;100929.81;4988761;28;20095;-83
2023/04/15 06:04:38;;;;;;;13.73;8.93;;;;;;;5.22;87.28;100912.97;4989649;28;20046;-84
2023/04/15 06:07:03;;;;;;;12.52;7.80;;;;;;;5.51;87.56;100934.94;4971276;28;20042;-84
2023/04/15 06:09:29;;;;;;;14.07;8.20;;;;;;;5.61;87.06;100926.28;4971597;28;20038;-83
2023/04/15 06:11:55;;;;;;;14.32;9.00;;;;;;;5.74;87.33;100939.16;4987951;28;20035;-83
2023/04/15 06:14:21;;;;;;;15.15;8.43;;;;;;;5.80;87.48;100936.16;5007774;28;20042;-84
2023/04/15 06:16:46;;;;;;;12.40;7.93;;;;;;;6.02;87.26;100952.16;5003111;28;20042;-84
2023/04/15 06:19:11;;;;;;;14.13;9.18;;;;;;;6.10;87.83;100941.81;5003661;28;20030;-83
2023/04/15 06:21:37;;;;;;;13.40;8.43;;;;;;;6.32;86.58;100955.06;4990006;28;20048;-84
2023/04/15 06:24:02;;;;;;;14.88;8.48;;;;;;;6.34;86.24;100956.75;4987076;28;20062;-84
2023/04/15 06:26:28;;;;;;;14.38;9.05;;;;;;;6.37;86.14;100955.69;4980839;28;20066;-84
2023/04/15 06:28:53;;;;;;;13.50;8.40;;;;;;;6.39;86.16;100961.91;4986490;28;20085;-84
2023/04/15 06:31:18;;;;;;;12.25;7.40;;;;;;;6.52;85.63;100962.09;4969234;28;20085;-84
2023/04/15 06:33:44;;;;;;;13.48;8.75;;;;;;;7.19;86.35;100969.22;4970068;28;20125;-83
2023/04/15 06:36:09;;;;;;;14.25;8.48;;;;;;;7.90;81.87;100969.56;4970368;28;20511;-83
2023/04/15 06:38:35;;;;;;;10.50;7.95;;;;;;;8.46;78.99;100979.81;4969980;28;20085;-84
2023/04/15 06:41:01;;;;;;;12.88;8.32;;;;;;;8.89;78.23;100975.28;4986854;28;20072;-83
2023/04/15 06:43:27;;;;;;;14.05;7.78;;;;;;;9.33;75.39;100979.72;4987141;28;20026;-84
2023/04/15 06:45:52;;;;;;;13.48;7.72;;;;;;;9.43;73.76;100991.72;4969807;28;20455;-84
2023/04/15 06:48:19;;;;;;;11.23;7.80;;;;;;;9.50;74.82;100995.75;4970158;28;20038;-83
2023/04/15 06:50:44;;;;;;;15.20;8.73;;;;;;;9.54;73.69;100986.44;4986422;28;20084;-84
2023/04/15 06:53:10;;;;;;;11.43;7.75;;;;;;;9.72;75.18;101000.66;4987194;28;20501;-84
2023/04/15 06:55:35;;;;;;;12.45;7.82;;;;;;;9.80;73.33;100995.59;4987957;28;20054;-84
2023/04/15 06:58:00;;;;;;;13.02;8.55;;;;;;;9.97;73.14;100998.03;4976010;28;20033;-84
2023/04/15 07:00:27;;;;;;;13.48;7.93;;;;;;;9.96;73.87;101012.59;4985634;28;20081;-84
2023/04/15 07:02:54;;;;;;;11.23;7.97;;;;;;;9.67;73.83;101013.69;4987696;28;20022;-84
2023/04/15 07:05:20;;;;;;;15.98;8.48;;;;;;;9.51;74.11;101021.06;4968913;28;20066;-83
2023/04/15 07:07:45;;;;;;;12.48;8.73;;;;;;;9.57;75.66;101021.56;4969480;28;20042;-83
2023/04/15 07:10:10;;;;;;;13.20;8.45;;;;;;;9.82;74.61;101020.81;4988066;28;20081;-84
2023/04/15 07:12:36;;;;;;;11.43;8.18;;;;;;;10.21;74.01;101025.44;4987191;28;20039;-84
2023/04/15 07:15:03;;;;;;;13.07;8.23;;;;;;;10.28;73.61;101034.06;4985187;28;20126;-84
2023/04/15 07:17:28;;;;;;;13.98;9.05;;;;;;;10.30;72.17;101039.38;4967636;28;20027;-84
2023/04/15 07:19:53;;;;;;;10.60;7.50;;;;;;;10.25;73.44;101039.69;5006231;28;20592;-83
2023/04/15 07:22:19;;;;;;;13.27;8.30;;;;;;;10.28;75.36;101042.22;4999947;28;20026;-84
2023/04/15 07:24:45;;;;;;;11.40;8.00;;;;;;;10.15;72.65;101033.97;4988238;28;20466;-83
2023/04/15 07:27:10;;;;;;;11.57;7.35;;;;;;;10.15;73.36;101039.41;4987847;28;20084;-83
2023/04/15 07:29:36;;;;;;;14.75;8.50;;;;;;;9.97;73.42;101049.66;5003631;28;20463;-83
2023/04/15 07:32:02;;;;;;;12.20;8.15;;;;;;;10.02;74.15;101052.06;4970994;28;20023;-84
2023/04/15 07:34:27;;;;;;;11.88;7.90;;;;;;;10.24;72.26;101048.81;4985667;28;20035;-83
2023/04/15 07:36:53;;;;;;;11.18;7.30;;;;;;;10.52;71.22;101068.72;4988348;28;20477;-84
2023/04/15 07:39:18;;;;;;;13.75;9.20;;;;;;;10.69;71.05;101066.56;4973199;28;20042;-84
2023/04/15 07:41:44;;;;;;;14.93;8.30;;;;;;;10.84;69.17;101061.03;4990882;28;20098;-84
2023/04/15 07:44:10;;;;;;;11.60;7.40;;;;;;;10.90;68.70;101072.34;4987163;28;20049;-83
2023/04/15 07:46:37;;;;;;;10.50;7.35;;;;;;;10.91;69.29;101071.41;4993695;28;20038;-83
2023/04/15 07:49:02;;;;;;;10.85;7.25;;;;;;;10.99;69.20;101087.16;5009541;28;20481;-84
2023/04/15 07:51:28;;;;;;;10.90;6.35;;;;;;;10.96;68.75;101079.25;4990757;28;20240;-83
2023/04/15 07:53:54;;;;;;;10.05;6.60;;;;;;;11.05;68.49;101089.47;4991014;28;20034;-84
2023/04/15 07:56:19;;;;;;;11.40;6.80;;;;;;;11.14;68.58;101083.34;4990726;28;20092;-84
2023/04/15 07:58:46;;;;;;;10.35;7.28;;;;;;;11.02;68.77;101081.50;4998335;28;20535;-84
2023/04/15 08:01:11;;;;;;;9.48;6.20;;;;;;;10.97;69.13;101098.16;5010614;28;20121;-84
2023/04/15 08:03:37;;;;;;;10.07;6.28;;;;;;;10.96;69.01;101098.28;5001176;28;20058;-84
2023/04/15 08:06:02;;;;;;;9.60;5.80;;;;;;;10.96;67.68;101093.72;4974990;28;20054;-84
2023/04/15 08:08:28;;;;;;;9.95;6.35;;;;;;;11.02;67.18;101135.97;4998217;28;20560;-85
2023/04/15 08:10:53;;;;;;;8.45;5.70;;;;;;;11.02;68.62;101108.75;5009649;28;20049;-84
2023/04/15 08:13:19;;;;;;;10.35;5.97;;;;;;;11.14;68.22;101110.59;4981157;28;20038;-83
2023/04/15 08:15:44;;;;;;;7.55;5.47;;;;;;;11.22;66.68;101116.38;4989451;28;20038;-85
2023/04/15 08:18:10;;;;;;;7.68;5.55;;;;;;;11.19;66.90;101108.44;4974129;28;20384;-84
2023/04/15 08:20:36;;;;;;;8.15;5.28;;;;;;;11.27;65.17;101113.31;4991166;28;20340;-85
2023/04/15 08:23:02;;;;;;;7.75;5.88;;;;;;;11.27;66.40;101115.16;4973901;28;20133;-84
2023/04/15 08:25:28;;;;;;;10.10;6.20;;;;;;;11.28;67.25;101130.53;4978985;28;20072;-85
2023/04/15 08:27:56;;;;;;;9.27;6.30;;;;;;;11.33;66.85;101121.06;4995176;28;20069;-83
2023/04/15 08:30:22;;;;;;;8.85;5.88;;;;;;;11.45;64.53;101132.94;4990843;28;20042;-83
2023/04/15 08:32:49;;;;;;;12.88;6.95;;;;;;;11.43;65.45;101132.19;4973561;28;20391;-84
2023/04/15 08:35:14;;;;;;;9.88;6.38;;;;;;;11.59;64.25;101140.97;4991604;28;20061;-84
2023/04/15 08:37:40;;;;;;;9.88;6.35;;;;;;;11.59;63.97;101111.00;4991550;28;20069;-84
2023/04/15 08:40:07;;;;;;;8.35;5.57;;;;;;;11.93;65.62;101146.72;4990089;28;20085;-83
2023/04/15 08:42:40;;;;;;;8.07;5.20;;;;;;;12.20;63.62;101144.69;4989619;28;20066;-85
2023/04/15 08:45:07;;;;;;;;;;;;;;;12.41;63.31;101163.19;5008855;28;20045;-83
2023/04/15 08:47:37;;;;;;;6.10;4.45;;;;;;;12.28;63.84;101155.03;5008251;28;19913;-85
2023/04/15 08:50:03;;;;;;;6.55;4.28;;;;;;;12.30;60.61;101180.34;5009168;28;20041;-84
2023/04/15 08:52:30;;;;;;;8.85;4.25;;;;;;;12.20;61.23;101180.16;5010458;28;20212;-83
2023/04/15 08:55:00;;;;;;;7.22;4.07;;;;;;;12.03;60.03;101179.66;5005231;28;20130;-84
2023/04/15 08:57:26;;;;;;;5.95;4.30;;;;;;;12.00;60.23;101205.31;4993650;28;20405;-85
2023/04/15 08:59:54;;;;;;;6.45;3.97;;;;;;;11.77;60.53;101179.66;5007779;28;20104;-85
2023/04/15 09:02:21;;;;;;;6.97;4.25;;;;;;;11.79;59.99;101196.78;5008389;28;20033;-83
2023/04/15 09:04:46;;;;;;;5.70;4.07;;;;;;;11.88;61.63;101196.16;4991456;28;20112;-84
2023/04/15 09:07:11;;;;;;;9.15;4.28;;;;;;;11.88;58.98;101200.72;4989319;28;20038;-84
2023/04/15 09:09:39;;;;;;;8.65;5.20;;;;;;;11.71;58.80;101188.31;4989606;28;20045;-85
2023/04/15 09:12:04;;;;;;;10.10;4.93;;;;;;;11.78;61.06;101207.78;4990909;28;20437;-85
2023/04/15 09:14:31;;;;;;;9.27;4.90;;;;;;;11.99;62.66;101217.19;5006135;28;20120;-85
2023/04/15 09:16:58;;;;;;;8.50;5.63;;;;;;;12.00;59.84;101216.22;5005870;28;20025;-86
2023/04/15 09:19:24;;;;;;;8.52;4.30;;;;;;;12.00;60.28;101228.00;4986157;28;20037;-87
2023/04/15 09:21:53;;;;;;;6.72;3.83;;;;;;;11.98;59.27;101221.78;4991138;28;20513;-83
2023/04/15 09:24:18;;;;;;;5.68;3.42;;;;;;;12.00;57.22;101238.03;5009646;28;20343;-86
2023/04/15 09:26:43;;;;;;;6.40;3.83;;;;;;;11.84;59.69;101227.34;4979502;28;20025;-86
2023/04/15 09:29:12;;;;;;;9.20;4.13;;;;;;;11.96;59.11;101240.09;4987822;28;20034;-84
2023/04/15 09:31:39;;;;;;;6.15;4.10;;;;;;;12.10;60.43;101230.91;4989789;28;20405;-85
2023/04/15 09:34:05;;;;;;;6.22;4.00;;;;;;;12.23;58.69;101237.22;4972166;28;20137;-88
2023/04/15 09:36:57;;;;;;;8.35;3.17;;;;;;;12.24;58.61;101249.00;4988641;28;20069;-84
2023/04/15 09:39:23;;;;;;;3.50;2.35;;;;;;;12.03;57.42;101243.28;4986394;28;20057;-85
2023/04/15 09:42:07;;;;;;;3.90;2.70;;;;;;;12.02;58.55;101257.00;4987910;28;20479;-84
2023/04/15 09:44:32;;;;;;;5.53;3.10;;;;;;;11.84;59.71;101256.44;4967664;28;20038;-84
2023/04/15 09:46:57;;;;;;;6.82;3.90;;;;;;;11.91;58.66;101252.31;4971652;28;20266;-84
2023/04/15 09:49:23;;;;;;;8.85;3.53;;;;;;;12.07;59.86;101249.34;4985067;28;20050;-86
2023/04/15 09:51:48;;;;;;;4.03;3.13;;;;;;;12.49;60.67;101248.94;4985014;28;20463;-84
2023/04/15 09:54:20;;;;;;;4.22;3.80;;;;;;;12.76;57.48;101254.19;4958890;28;20065;-84
2023/04/15 09:56:45;;;;;;;4.97;3.33;;;;;;;12.83;57.80;101259.22;5007534;28;20505;-84
2023/04/15 09:59:11;;;;;;;5.88;3.60;;;;;;;13.09;57.27;101265.41;4993099;28;20038;-89
2023/04/15 10:01:37;;;;;;;3.67;2.85;;;;;;;13.15;55.83;101267.66;4986992;28;20372;-86
2023/04/15 10:04:03;;;;;;;5.82;3.17;;;;;;;13.11;54.44;101268.91;4987249;28;20091;-84
2023/04/15 10:06:29;;;;;;;5.18;3.17;;;;;;;13.15;55.93;101263.09;4989430;28;20143;-86
2023/04/15 10:08:56;;;;;;;4.38;3.50;;;;;;;13.17;54.64;101263.84;4971853;28;20471;-87
2023/04/15 10:11:23;;;;;;;4.65;3.60;;;;;;;12.87;57.84;101263.44;4997962;28;20078;-87
2023/04/15 10:13:50;;;;;;;8.55;4.78;;;;;;;12.92;56.81;101273.03;5004231;28;20048;-86
2023/04/15 10:16:18;;;;;;;4.63;3.42;;;;;;;13.20;59.29;101270.94;5007906;28;20157;-87
2023/04/15 10:18:46;;;;;;;10.25;4.32;;;;;;;13.53;56.47;101271.09;5002969;28;20109;-86
2023/04/15 10:21:12;;;;;;;6.07;3.33;;;;;;;13.64;56.53;101269.38;5008530;28;20093;-86
2023/04/15 10:23:39;;;;;;;4.07;2.90;;;;;;;13.61;54.37;101280.53;5007406;28;20037;-84
2023/04/15 10:26:06;;;;;;;4.40;2.97;;;;;;;13.44;52.93;101271.81;5000098;28;20038;-86
2023/04/15 10:28:31;;;;;;;4.20;2.85;;;;;;;13.51;59.38;101277.66;4987039;28;20058;-86
2023/04/15 10:30:58;;;;;;;4.57;3.20;;;;;;;13.65;53.82;101279.31;4986764;28;20072;-87
2023/04/15 10:33:24;;;;;;;6.32;2.83;;;;;;;13.75;55.45;101292.13;4993391;28;20022;-86
2023/04/15 10:35:53;;;;;;;3.55;2.80;;;;;;;13.92;57.12;101274.41;4990596;28;20099;-87
2023/04/15 10:38:44;;;;;;;5.57;3.08;;;;;;;14.33;57.89;101291.22;5007031;28;20152;-86
2023/04/15 10:41:20;;;;;;;4.90;2.80;;;;;;;14.37;52.85;101295.47;5001925;28;20394;-85
2023/04/15 10:44:00;;;;;;;4.97;3.30;;;;;;;14.29;54.95;101296.94;4994138;28;20030;-84
2023/04/15 10:46:36;;;;;;;4.88;3.22;;;;;;;14.30;53.08;101297.81;5007686;28;20046;-85
2023/04/15 10:49:13;;;;;;;3.47;2.83;;;;;;;14.55;53.72;101288.53;5006129;28;20076;-89
2023/04/15 10:51:43;;;;;;;3.88;2.78;;;;;;;14.88;51.14;101293.06;5007441;28;20073;-87
2023/04/15 10:54:16;;;;;;;5.32;3.10;;;;;;;14.85;53.26;101301.53;5007028;28;20501;-85
2023/04/15 10:56:49;;;;;;;5.00;3.35;;;;;;;14.94;53.38;101291.69;5005749;28;20058;-88
2023/04/15 10:59:15;;;;;;;3.60;2.70;;;;;;;15.22;51.17;101287.47;4985066;28;20066;-88
2023/04/15 11:01:50;;;;;;;3.05;2.17;;;;;;;15.32;53.11;101305.75;5006286;28;20052;-87
2023/04/15 11:04:56;;;;;;;3.53;2.65;;;;;;;15.00;50.66;101302.13;4994387;28;20038;-84
2023/04/15 11:07:43;;;;;;;6.70;2.55;;;;;;;14.63;50.75;101302.44;4971072;28;20465;-85
2023/04/15 11:10:12;;;;;;;4.15;2.88;;;;;;;14.35;49.46;101306.53;4970975;28;20049;-84
2023/04/15 11:12:39;;;;;;;4.57;2.90;;;;;;;14.32;52.10;101305.91;4988342;28;20133;-87
2023/04/15 11:15:32;;;;;;;7.95;4.15;;;;;;;14.44;53.32;101313.13;4974166;28;20038;-86
2023/04/15 11:18:21;;;;;;;4.97;3.45;;;;;;;14.13;52.03;101303.75;4976080;28;20145;-88
2023/04/15 11:20:55;;;;;;;4.32;2.92;;;;;;;14.11;51.96;101313.97;5011836;28;20033;-84
2023/04/15 11:23:38;;;;;;;5.25;3.22;;;;;;;14.20;53.29;101305.03;5012225;28;20422;-86